Liberty — WDD6569 — position and weather

sailwx.info

Track history (hours):
 
Tides and Currents Weather Stations Pressure Air Temp Water Temp Dewpoint Dewpoint Depression Visibility Wind Speed Wind Dir Waves Ship Positions

Liberty

Owner: Tampa Tugs Three, LLC, Tampa, FL. More information available from US FCC via Universal Licensing System and Coast Guard Vessel Documentation Center.

Last reported at 2018-Feb-24 15:30 UTC. Time now 2018-Feb-24 15:57 UTC.
Position N 27°52' W 082°33'.

Length 29 m.

Type: Tug. MMSI: 367174670.

Date/timePositionNaut miles runAvg speedWind from/ knotsBaromVisibWave heightAir tempDewpointWater temp
2018-Feb-24 15:30N 27°52' W 082°33'0 0.0
2018-Feb-24 15:00N 27°52' W 082°33'0 0.0
2018-Feb-24 14:30N 27°52' W 082°33'0 0.0
2018-Feb-24 14:00N 27°52' W 082°33'0 0.0
2018-Feb-24 13:30N 27°52' W 082°33'0 0.0
2018-Feb-24 13:00N 27°52' W 082°33'0 0.0
2018-Feb-24 12:27N 27°52' W 082°33'0 0.0
2018-Feb-24 12:00N 27°52' W 082°33'0 0.0
2018-Feb-24 11:30N 27°52' W 082°33'0 0.0
2018-Feb-24 11:00N 27°52' W 082°33'0 0.0
2018-Feb-24 10:29N 27°52' W 082°33'0 0.0
2018-Feb-24 10:00N 27°52' W 082°33'0 0.0
2018-Feb-24 09:30N 27°52' W 082°33'0 0.0
2018-Feb-24 09:00N 27°52' W 082°33'0 0.0
2018-Feb-24 08:30N 27°52' W 082°33'0 0.0
2018-Feb-24 07:59N 27°52' W 082°33'0 0.0
2018-Feb-24 07:29N 27°52' W 082°33'0 0.0
2018-Feb-24 06:58N 27°52' W 082°33'0 0.0
2018-Feb-24 06:30N 27°52' W 082°33'0 0.0
2018-Feb-24 06:00N 27°52' W 082°33'0 0.0
2018-Feb-24 05:30N 27°52' W 082°33'0 0.0
2018-Feb-24 05:00N 27°52' W 082°33'0 0.0
2018-Feb-24 04:30N 27°52' W 082°33'0 0.0
2018-Feb-24 04:00N 27°52' W 082°33'0 0.0
2018-Feb-24 03:30N 27°52' W 082°33'0 0.0
2018-Feb-24 03:00N 27°52' W 082°33'0 0.0
2018-Feb-24 02:30N 27°52' W 082°33'0 0.0
2018-Feb-24 02:00N 27°52' W 082°33'0 0.1
2018-Feb-24 01:30N 27°52' W 082°33'0 0.3
2018-Feb-24 01:00N 27°52' W 082°33'0 0.4
2018-Feb-24 00:30N 27°52' W 082°33'0 0.4
2018-Feb-23 23:50N 27°52' W 082°33'1 4.6
2018-Feb-23 23:30N 27°50' W 082°34'4 7.9
2018-Feb-23 23:00N 27°47' W 082°31'510.0
2018-Feb-23 22:30N 27°50' W 082°27'510.2
2018-Feb-23 22:00N 27°55' W 082°26'1 2.0
2018-Feb-23 21:30N 27°56' W 082°26'0 0.0
2018-Feb-23 21:00N 27°56' W 082°26'0 0.0
2018-Feb-23 20:30N 27°56' W 082°26'0 0.0
2018-Feb-23 20:00N 27°56' W 082°26'0 0.0
2018-Feb-23 19:30N 27°56' W 082°26'0 0.0
2018-Feb-23 19:00N 27°56' W 082°26'0 0.0
2018-Feb-23 18:30N 27°56' W 082°26'0 0.0
2018-Feb-23 18:00N 27°56' W 082°26'0 0.0
2018-Feb-23 17:30N 27°56' W 082°26'0 0.0
2018-Feb-23 17:00N 27°56' W 082°26'0 0.0
2018-Feb-23 16:30N 27°56' W 082°26'0 0.0
2018-Feb-23 16:00N 27°56' W 082°26'2 3.6
2018-Feb-23 15:30N 27°54' W 082°26'1 1.3
2018-Feb-23 14:59N 27°54' W 082°25'0 0.0
2018-Feb-23 14:30N 27°54' W 082°25'2 4.0
2018-Feb-23 14:00N 27°56' W 082°26'0 0.0
2018-Feb-23 13:30N 27°56' W 082°26'0 0.0
2018-Feb-23 12:59N 27°56' W 082°26'0 0.0
2018-Feb-23 12:30N 27°56' W 082°26'0 0.0
2018-Feb-23 12:00N 27°56' W 082°26'0 0.0
2018-Feb-23 11:30N 27°56' W 082°26'0 0.8
2018-Feb-23 11:00N 27°56' W 082°26'1 1.8
2018-Feb-23 10:31N 27°55' W 082°27'0 0.1
2018-Feb-23 10:00N 27°55' W 082°27'0 0.0
2018-Feb-23 09:30N 27°55' W 082°27'0 0.1
2018-Feb-23 09:00N 27°55' W 082°27'0 0.7
2018-Feb-23 08:30N 27°55' W 082°27'0 0.9
2018-Feb-23 08:00N 27°56' W 082°27'1 1.1
2018-Feb-23 07:30N 27°55' W 082°27'2 3.0
2018-Feb-23 07:00N 27°54' W 082°26'2 3.9
2018-Feb-23 06:30N 27°56' W 082°26'0 1.0
2018-Feb-23 06:00N 27°56' W 082°26'0 0.0
2018-Feb-23 05:30N 27°56' W 082°26'0 0.0
2018-Feb-23 05:00N 27°56' W 082°26'0 0.0
2018-Feb-23 04:30N 27°56' W 082°26'0 0.0
2018-Feb-23 04:00N 27°56' W 082°26'0 0.0
2018-Feb-23 03:30N 27°56' W 082°26'0 0.0
2018-Feb-23 02:59N 27°56' W 082°26'0 0.0
2018-Feb-23 02:30N 27°56' W 082°26'0 0.0
2018-Feb-23 02:00N 27°56' W 082°26'0 0.0
2018-Feb-23 01:30N 27°56' W 082°26'0 0.0
2018-Feb-23 01:00N 27°56' W 082°26'0 0.0
2018-Feb-23 00:30N 27°56' W 082°26'0 0.0
2018-Feb-23 00:00N 27°56' W 082°26'0 0.0
2018-Feb-22 23:30N 27°56' W 082°26'0 0.0
2018-Feb-22 23:00N 27°56' W 082°26'0 0.0
2018-Feb-22 22:30N 27°56' W 082°26'0 0.0
2018-Feb-22 22:00N 27°56' W 082°26'0 0.0
2018-Feb-22 21:30N 27°56' W 082°26'0 0.0
2018-Feb-22 21:00N 27°56' W 082°26'0 0.0
2018-Feb-22 20:30N 27°56' W 082°26'0 0.0
2018-Feb-22 20:00N 27°56' W 082°26'0 0.0
2018-Feb-22 19:30N 27°56' W 082°26'0 0.0
2018-Feb-22 19:00N 27°56' W 082°26'0 0.0
2018-Feb-22 18:30N 27°56' W 082°26'0 0.0
2018-Feb-22 18:00N 27°56' W 082°26'0 0.0
2018-Feb-22 17:29N 27°56' W 082°26'0 0.0
2018-Feb-22 17:00N 27°56' W 082°26'0 0.0
2018-Feb-22 16:30N 27°56' W 082°26'0 0.0
2018-Feb-22 16:00N 27°56' W 082°26'0 0.0
2018-Feb-22 15:30N 27°56' W 082°26'0 0.0
2018-Feb-22 15:00N 27°56' W 082°26'0 0.0
2018-Feb-22 14:30N 27°56' W 082°26'0 0.0
2018-Feb-22 13:59N 27°56' W 082°26'0 0.0
2018-Feb-22 13:30N 27°56' W 082°26'0 0.0
2018-Feb-22 13:00N 27°56' W 082°26'0 0.0
2018-Feb-22 12:30N 27°56' W 082°26'0 0.0
2018-Feb-22 11:59N 27°56' W 082°26'0 0.0
2018-Feb-22 11:30N 27°56' W 082°26'0 0.0
2018-Feb-22 11:00N 27°56' W 082°26'0 0.0
2018-Feb-22 10:30N 27°56' W 082°26'0 0.0
2018-Feb-22 10:00N 27°56' W 082°26'0 0.0
2018-Feb-22 09:30N 27°56' W 082°26'0 0.0
2018-Feb-22 09:00N 27°56' W 082°26'1 1.9
2018-Feb-22 08:30N 27°55' W 082°26'510.6
2018-Feb-22 08:00N 27°50' W 082°27'3 5.5
2018-Feb-22 07:30N 27°48' W 082°25'0 0.7
2018-Feb-22 06:57N 27°48' W 082°25'1 1.3
2018-Feb-22 06:29N 27°48' W 082°25'1 2.7
2018-Feb-22 06:00N 27°49' W 082°27'0 0.3
2018-Feb-22 05:30N 27°49' W 082°27'0 0.2
2018-Feb-22 05:00N 27°49' W 082°27'3 6.7
2018-Feb-22 04:30N 27°47' W 082°30'4 7.4
2018-Feb-22 04:00N 27°44' W 082°32'2 0.6
2018-Feb-22 01:04N 27°42' W 082°33'312.4
2018-Feb-22 00:50N 27°45' W 082°32'310.5
2018-Feb-22 00:30N 27°48' W 082°29'4 8.1
2018-Feb-21 23:58N 27°48' W 082°24'1 1.2
2018-Feb-21 23:30N 27°48' W 082°25'4 8.6
2018-Feb-21 23:00N 27°53' W 082°26'3 6.8
2018-Feb-21 22:30N 27°56' W 082°26'0 0.0
2018-Feb-21 22:00N 27°56' W 082°26'0 0.0
2018-Feb-21 21:30N 27°56' W 082°26'0 0.0
2018-Feb-21 21:00N 27°56' W 082°26'0 0.0
2018-Feb-21 20:30N 27°56' W 082°26'0 0.0
2018-Feb-21 20:00N 27°56' W 082°26'1 2.0
2018-Feb-21 19:30N 27°55' W 082°26'0 0.0
2018-Feb-21 19:00N 27°55' W 082°26'1 1.2
2018-Feb-21 18:27N 27°54' W 082°26'0 0.0
2018-Feb-21 18:00N 27°54' W 082°26'1 1.1
2018-Feb-21 17:30N 27°55' W 082°26'0 0.9
2018-Feb-21 17:00N 27°55' W 082°25'1 1.9
2018-Feb-21 16:30N 27°54' W 082°26'1 1.2
2018-Feb-21 16:00N 27°54' W 082°25'0 0.1
2018-Feb-21 15:30N 27°54' W 082°25'2 4.0
2018-Feb-21 15:00N 27°56' W 082°26'0 0.0
2018-Feb-21 14:30N 27°56' W 082°26'0 0.0
2018-Feb-21 14:00N 27°56' W 082°26'0 0.0
2018-Feb-21 13:30N 27°56' W 082°26'0 0.0
2018-Feb-21 13:00N 27°56' W 082°26'1 2.3
2018-Feb-21 12:30N 27°55' W 082°27'0 0.4
2018-Feb-21 12:00N 27°55' W 082°27'0 0.0
2018-Feb-21 11:30N 27°55' W 082°27'0 0.3
2018-Feb-21 11:00N 27°55' W 082°27'2 3.9
2018-Feb-21 10:30N 27°53' W 082°26'510.5
2018-Feb-21 10:00N 27°48' W 082°28'510.1
2018-Feb-21 09:29N 27°44' W 082°32'1 0.1
2018-Feb-20 19:18N 27°43' W 082°32'310.4
2018-Feb-20 18:58N 27°46' W 082°31'510.1
2018-Feb-20 18:30N 27°49' W 082°27'2 3.9
2018-Feb-20 18:00N 27°48' W 082°25'2 4.2
2018-Feb-20 17:30N 27°49' W 082°27'0 0.3
2018-Feb-20 17:00N 27°49' W 082°27'4 7.8
2018-Feb-20 16:30N 27°53' W 082°26'3 6.9
2018-Feb-20 16:00N 27°56' W 082°26'0 0.0
2018-Feb-20 15:30N 27°56' W 082°26'0 0.0
2018-Feb-20 15:00N 27°56' W 082°26'2 3.7
2018-Feb-20 14:30N 27°54' W 082°25'0 0.1
2018-Feb-20 14:00N 27°54' W 082°25'0 0.8
2018-Feb-20 13:30N 27°54' W 082°26'1 1.5
2018-Feb-20 13:00N 27°55' W 082°25'1 1.5
2018-Feb-20 12:30N 27°56' W 082°26'0 0.7
2018-Feb-20 12:00N 27°56' W 082°26'0 0.0
2018-Feb-20 11:30N 27°56' W 082°26'0 0.0
2018-Feb-20 11:00N 27°56' W 082°26'0 0.0
2018-Feb-20 10:30N 27°56' W 082°26'0 0.0
2018-Feb-20 10:00N 27°56' W 082°26'0 0.0
2018-Feb-20 09:30N 27°56' W 082°26'2 3.6
2018-Feb-20 09:00N 27°54' W 082°25'1 1.3
2018-Feb-20 08:30N 27°54' W 082°25'0 0.0
2018-Feb-20 08:00N 27°54' W 082°25'1 2.5
2018-Feb-20 07:30N 27°54' W 082°26'0 0.3
2018-Feb-20 07:00N 27°54' W 082°26'2 3.9
2018-Feb-20 06:30N 27°56' W 082°26'0 0.0
2018-Feb-20 06:00N 27°56' W 082°26'0 0.0
2018-Feb-20 05:30N 27°56' W 082°26'0 0.0
2018-Feb-20 05:00N 27°56' W 082°26'0 0.0
2018-Feb-20 04:30N 27°56' W 082°26'0 0.0
2018-Feb-20 04:00N 27°56' W 082°26'0 0.0
2018-Feb-20 03:30N 27°56' W 082°26'0 0.0
2018-Feb-20 03:00N 27°56' W 082°26'0 0.0
2018-Feb-20 02:30N 27°56' W 082°26'0 0.0
2018-Feb-20 02:00N 27°56' W 082°26'0 0.0
2018-Feb-20 01:30N 27°56' W 082°26'0 0.0
2018-Feb-20 01:00N 27°56' W 082°26'0 0.0
2018-Feb-20 00:30N 27°56' W 082°26'0 0.0
2018-Feb-20 00:00N 27°56' W 082°26'0 0.0
2018-Feb-19 23:30N 27°56' W 082°26'0 0.0
2018-Feb-19 23:00N 27°56' W 082°26'0 0.0
2018-Feb-19 22:30N 27°56' W 082°26'0 0.0
2018-Feb-19 22:00N 27°56' W 082°26'0 0.0
2018-Feb-19 21:30N 27°56' W 082°26'0 0.0
2018-Feb-19 21:00N 27°56' W 082°26'0 0.0
2018-Feb-19 20:30N 27°56' W 082°26'0 0.0
2018-Feb-19 20:00N 27°56' W 082°26'0 0.0
2018-Feb-19 19:30N 27°56' W 082°26'1 2.2
2018-Feb-19 19:00N 27°55' W 082°26'0 0.5
2018-Feb-19 18:30N 27°55' W 082°26'2 3.9
2018-Feb-19 18:00N 27°53' W 082°27'0 0.0
2018-Feb-19 17:31N 27°53' W 082°27'3 6.2
2018-Feb-19 17:00N 27°56' W 082°26'0 0.0
2018-Feb-19 16:30N 27°56' W 082°26'0 0.0
2018-Feb-19 16:00N 27°56' W 082°26'0 0.0
2018-Feb-19 15:30N 27°56' W 082°26'0 0.0
2018-Feb-19 15:00N 27°56' W 082°26'0 0.0
2018-Feb-19 14:30N 27°56' W 082°26'0 0.0
2018-Feb-19 14:00N 27°56' W 082°26'0 0.0
2018-Feb-19 13:30N 27°56' W 082°26'1 2.3
2018-Feb-19 13:00N 27°55' W 082°25'0 0.1
2018-Feb-19 12:30N 27°55' W 082°25'2 3.0
2018-Feb-19 12:00N 27°54' W 082°26'1 1.8
2018-Feb-19 11:30N 27°53' W 082°27'2 4.9
2018-Feb-19 11:00N 27°55' W 082°26'1 1.6
2018-Feb-19 10:30N 27°56' W 082°26'0 0.0
2018-Feb-19 10:00N 27°56' W 082°26'0 0.0
2018-Feb-19 09:30N 27°56' W 082°26'0 0.0
2018-Feb-19 09:00N 27°56' W 082°26'0 0.0
2018-Feb-19 08:30N 27°56' W 082°26'0 0.0
2018-Feb-19 08:00N 27°56' W 082°26'0 0.0
2018-Feb-19 07:30N 27°56' W 082°26'0 0.0
2018-Feb-19 07:00N 27°56' W 082°26'0 0.0
2018-Feb-19 06:30N 27°56' W 082°26'0 0.7
2018-Feb-19 06:00N 27°56' W 082°26'1 2.3
2018-Feb-19 05:30N 27°55' W 082°26'0 0.3
2018-Feb-19 05:00N 27°55' W 082°26'0 0.0
2018-Feb-19 04:30N 27°55' W 082°26'2 3.9
2018-Feb-19 04:00N 27°57' W 082°27'1 1.2
2018-Feb-19 03:30N 27°57' W 082°27'1 1.4
2018-Feb-19 03:00N 27°56' W 082°27'2 4.4
2018-Feb-19 02:30N 27°54' W 082°26'1 1.3
2018-Feb-19 02:00N 27°54' W 082°26'1 2.1
2018-Feb-19 01:30N 27°54' W 082°26'0 0.0
2018-Feb-19 01:00N 27°54' W 082°26'0 0.0
2018-Feb-19 00:31N 27°54' W 082°26'1 2.2
2018-Feb-19 00:00N 27°55' W 082°27'0 0.3
2018-Feb-18 23:30N 27°55' W 082°27'2 3.8
2018-Feb-18 23:00N 27°53' W 082°26'0 0.4
2018-Feb-18 22:30N 27°53' W 082°27'3 5.1
2018-Feb-18 22:00N 27°55' W 082°26'1 1.6
2018-Feb-18 21:30N 27°56' W 082°26'0 0.0
2018-Feb-18 21:00N 27°56' W 082°26'0 0.0
2018-Feb-18 20:30N 27°56' W 082°26'0 0.0
2018-Feb-18 20:00N 27°56' W 082°26'0 0.0
2018-Feb-18 19:30N 27°56' W 082°26'0 0.0
2018-Feb-18 19:00N 27°56' W 082°26'0 0.0
2018-Feb-18 18:30N 27°56' W 082°26'0 0.0
2018-Feb-18 18:00N 27°56' W 082°26'0 0.0
2018-Feb-18 17:30N 27°56' W 082°26'0 0.0
2018-Feb-18 17:00N 27°56' W 082°26'0 0.0
2018-Feb-18 16:30N 27°56' W 082°26'1 1.5
2018-Feb-18 16:00N 27°56' W 082°27'1 2.5
2018-Feb-18 15:30N 27°57' W 082°27'1 1.0
2018-Feb-18 15:00N 27°57' W 082°27'2 4.4
2018-Feb-18 14:31N 27°54' W 082°26'0 0.7
2018-Feb-18 14:00N 27°54' W 082°26'0 0.3
2018-Feb-18 13:31N 27°54' W 082°26'2 3.3
2018-Feb-18 13:00N 27°56' W 082°27'0 0.8
2018-Feb-18 12:30N 27°56' W 082°27'1 1.0
2018-Feb-18 12:00N 27°56' W 082°27'2 4.8
2018-Feb-18 11:30N 27°53' W 082°26'2 3.3
2018-Feb-18 11:00N 27°55' W 082°26'1 2.5
2018-Feb-18 10:30N 27°56' W 082°26'0 0.0
2018-Feb-18 10:00N 27°56' W 082°26'0 0.0
2018-Feb-18 09:30N 27°56' W 082°26'0 0.0
2018-Feb-18 09:00N 27°56' W 082°26'0 0.0
2018-Feb-18 08:30N 27°56' W 082°26'0 0.0
2018-Feb-18 08:00N 27°56' W 082°26'0 0.0
2018-Feb-18 07:30N 27°56' W 082°26'0 0.0
2018-Feb-18 07:00N 27°56' W 082°26'0 0.0
2018-Feb-18 06:30N 27°56' W 082°26'0 0.0
2018-Feb-18 06:00N 27°56' W 082°26'0 0.0
2018-Feb-18 05:30N 27°56' W 082°26'0 0.0
2018-Feb-18 05:00N 27°56' W 082°26'0 0.0
2018-Feb-18 04:30N 27°56' W 082°26'0 0.0
2018-Feb-18 04:00N 27°56' W 082°26'0 0.0
2018-Feb-18 03:30N 27°56' W 082°26'0 0.0
2018-Feb-18 03:00N 27°56' W 082°26'0 0.0
2018-Feb-18 02:30N 27°56' W 082°26'0 0.0
2018-Feb-18 02:00N 27°56' W 082°26'0 0.0
2018-Feb-18 01:30N 27°56' W 082°26'0 0.0
2018-Feb-18 01:00N 27°56' W 082°26'0 0.0
2018-Feb-18 00:30N 27°56' W 082°26'0 0.0
2018-Feb-18 00:00N 27°56' W 082°26'0 0.0
2018-Feb-17 23:30N 27°56' W 082°26'3 5.4
2018-Feb-17 23:00N 27°53' W 082°26'5 9.2
2018-Feb-17 22:30N 27°49' W 082°27'3 5.8
2018-Feb-17 22:00N 27°48' W 082°30'510.5
2018-Feb-17 21:29N 27°43' W 082°33'5 8.1
2018-Feb-17 20:54N 27°38' W 082°34'0 1.0
2018-Feb-17 20:30N 27°38' W 082°34'0 0.0
2018-Feb-17 20:00N 27°38' W 082°34'0 0.0
2018-Feb-17 18:38N 27°38' W 082°34'0 0.0
2018-Feb-17 18:13N 27°38' W 082°34'0 0.0
2018-Feb-17 17:44N 27°38' W 082°34'4 0.9
2018-Feb-17 13:08N 27°42' W 082°33'212.8
2018-Feb-17 13:00N 27°44' W 082°32'510.8
2018-Feb-17 12:30N 27°48' W 082°29'510.9
2018-Feb-17 12:00N 27°53' W 082°26'3 5.8
2018-Feb-17 11:29N 27°56' W 082°26'0 0.0
2018-Feb-17 11:00N 27°56' W 082°26'0 0.0
2018-Feb-17 10:30N 27°56' W 082°26'0 0.0
2018-Feb-17 10:00N 27°56' W 082°26'0 0.0
2018-Feb-17 09:30N 27°56' W 082°26'0 0.0
2018-Feb-17 09:00N 27°56' W 082°26'0 0.0
2018-Feb-17 08:30N 27°56' W 082°26'0 0.0
2018-Feb-17 08:00N 27°56' W 082°26'0 0.0
2018-Feb-17 07:30N 27°56' W 082°26'0 0.0
2018-Feb-17 06:59N 27°56' W 082°26'0 0.0
2018-Feb-17 06:30N 27°56' W 082°26'0 0.0
2018-Feb-17 06:00N 27°56' W 082°26'0 0.0
2018-Feb-17 05:30N 27°56' W 082°26'0 0.0
2018-Feb-17 05:00N 27°56' W 082°26'0 0.0
2018-Feb-17 04:30N 27°56' W 082°26'0 0.0
2018-Feb-17 04:00N 27°56' W 082°26'0 0.0
2018-Feb-17 03:26N 27°56' W 082°26'0 0.0
2018-Feb-17 03:00N 27°56' W 082°26'0 0.0
2018-Feb-17 02:30N 27°56' W 082°26'0 0.0
2018-Feb-17 02:00N 27°56' W 082°26'0 0.0
2018-Feb-17 01:30N 27°56' W 082°26'0 0.0
2018-Feb-17 01:00N 27°56' W 082°26'0 0.0
2018-Feb-17 00:30N 27°56' W 082°26'0 0.0
2018-Feb-17 00:00N 27°56' W 082°26'0 0.0
2018-Feb-16 23:30N 27°56' W 082°26'0 0.0
2018-Feb-16 23:00N 27°56' W 082°26'0 0.0
2018-Feb-16 22:30N 27°56' W 082°26'0 0.0
2018-Feb-16 22:00N 27°56' W 082°26'0 0.0
2018-Feb-16 21:30N 27°56' W 082°26'0 0.0
2018-Feb-16 21:00N 27°56' W 082°26'0 0.0
2018-Feb-16 20:30N 27°56' W 082°26'0 0.0
2018-Feb-16 20:00N 27°56' W 082°26'0 0.0
2018-Feb-16 19:30N 27°56' W 082°26'0 0.0
2018-Feb-16 19:00N 27°56' W 082°26'0 0.0
2018-Feb-16 18:30N 27°56' W 082°26'0 0.0
2018-Feb-16 18:00N 27°56' W 082°26'0 0.0
2018-Feb-16 17:30N 27°56' W 082°26'2 3.3
2018-Feb-16 17:00N 27°54' W 082°26'510.9
2018-Feb-16 16:31N 27°49' W 082°27'510.6
2018-Feb-16 16:00N 27°47' W 082°33'4 8.3
2018-Feb-16 15:30N 27°51' W 082°33'1 1.1
2018-Feb-16 14:58N 27°52' W 082°33'2 3.5
2018-Feb-16 14:30N 27°50' W 082°34'3 6.7
2018-Feb-16 14:00N 27°47' W 082°32'5 9.5
2018-Feb-16 13:30N 27°48' W 082°27'5 9.6
2018-Feb-16 13:00N 27°53' W 082°26'3 5.4
2018-Feb-16 12:30N 27°56' W 082°26'2 3.2
2018-Feb-16 12:00N 27°54' W 082°26'0 0.4
2018-Feb-16 11:30N 27°54' W 082°26'1 2.8
2018-Feb-16 11:00N 27°53' W 082°27'1 2.6
2018-Feb-16 10:30N 27°54' W 082°26'1 1.5
2018-Feb-16 10:00N 27°55' W 082°26'0 0.0
2018-Feb-16 09:30N 27°55' W 082°26'0 0.0
2018-Feb-16 09:00N 27°55' W 082°26'0 0.0
2018-Feb-16 08:30N 27°55' W 082°26'0 0.0
2018-Feb-16 08:00N 27°55' W 082°26'0 0.0
2018-Feb-16 07:30N 27°55' W 082°26'0 0.0
2018-Feb-16 07:00N 27°55' W 082°26'0 0.0
2018-Feb-16 06:30N 27°55' W 082°26'0 0.9
2018-Feb-16 06:00N 27°54' W 082°26'1 1.4
2018-Feb-16 05:30N 27°54' W 082°25'1 1.7
2018-Feb-16 05:00N 27°55' W 082°26'1 2.5
2018-Feb-16 04:30N 27°56' W 082°26'0 0.0
2018-Feb-16 04:00N 27°56' W 082°26'0 0.0
2018-Feb-16 03:30N 27°56' W 082°26'0 0.0
2018-Feb-16 03:00N 27°56' W 082°26'0 0.0
2018-Feb-16 02:30N 27°56' W 082°26'0 0.0
2018-Feb-16 02:00N 27°56' W 082°26'0 0.0
2018-Feb-16 01:30N 27°56' W 082°26'0 0.0
2018-Feb-16 01:00N 27°56' W 082°26'0 0.0
2018-Feb-16 00:30N 27°56' W 082°26'0 0.0
2018-Feb-16 00:00N 27°56' W 082°26'0 0.0
2018-Feb-15 23:30N 27°56' W 082°26'0 0.0
2018-Feb-15 23:00N 27°56' W 082°26'0 0.0
2018-Feb-15 22:30N 27°56' W 082°26'0 0.0
2018-Feb-15 22:00N 27°56' W 082°26'0 0.0
2018-Feb-15 21:30N 27°56' W 082°26'0 0.0
2018-Feb-15 21:00N 27°56' W 082°26'0 0.0
2018-Feb-15 20:30N 27°56' W 082°26'0 0.0
2018-Feb-15 20:00N 27°56' W 082°26'0 0.0
2018-Feb-15 19:30N 27°56' W 082°26'0 0.0
2018-Feb-15 19:00N 27°56' W 082°26'0 0.0
2018-Feb-15 18:30N 27°56' W 082°26'0 0.0
2018-Feb-15 18:00N 27°56' W 082°26'0 0.0
2018-Feb-15 17:30N 27°56' W 082°26'0 0.0
2018-Feb-15 17:00N 27°56' W 082°26'1 2.3
2018-Feb-15 16:30N 27°55' W 082°25'0 0.1
2018-Feb-15 16:00N 27°55' W 082°25'1 1.6
2018-Feb-15 15:30N 27°54' W 082°26'1 2.2
2018-Feb-15 15:00N 27°53' W 082°26'5 9.5
2018-Feb-15 14:30N 27°49' W 082°26'1 1.8
2018-Feb-15 13:52N 27°48' W 082°25'0 0.7
2018-Feb-15 13:30N 27°48' W 082°24'0 0.0
2018-Feb-15 13:00N 27°48' W 082°24'0 0.3
2018-Feb-15 12:30N 27°48' W 082°25'0 0.0
2018-Feb-15 12:00N 27°48' W 082°25'0 0.0
2018-Feb-15 11:29N 27°48' W 082°25'0 0.0
2018-Feb-15 11:00N 27°48' W 082°25'0 0.0
2018-Feb-15 10:30N 27°48' W 082°25'0 0.0
2018-Feb-15 10:00N 27°48' W 082°25'0 0.0
2018-Feb-15 09:30N 27°48' W 082°25'0 0.0
2018-Feb-15 09:00N 27°48' W 082°25'0 0.0
2018-Feb-15 08:30N 27°48' W 082°25'0 0.0
2018-Feb-15 08:00N 27°48' W 082°25'0 0.0
2018-Feb-15 07:30N 27°48' W 082°25'0 0.0
2018-Feb-15 07:00N 27°48' W 082°25'0 0.0
2018-Feb-15 06:30N 27°48' W 082°25'0 0.0
2018-Feb-15 06:00N 27°48' W 082°25'1 1.0
2018-Feb-15 05:29N 27°48' W 082°25'510.5
2018-Feb-15 05:00N 27°47' W 082°31'6 2.1
2018-Feb-15 02:12N 27°42' W 082°33'311.0
2018-Feb-15 01:55N 27°45' W 082°32'4 9.8
2018-Feb-15 01:30N 27°48' W 082°29'5 9.8
2018-Feb-15 01:00N 27°52' W 082°27'2 4.5
2018-Feb-15 00:30N 27°54' W 082°25'0 0.0
2018-Feb-15 00:01N 27°54' W 082°25'5 8.8
2018-Feb-14 23:30N 27°50' W 082°27'510.2
2018-Feb-14 23:01N 27°47' W 082°31'4 7.4
2018-Feb-14 22:29N 27°50' W 082°34'2 3.5
2018-Feb-14 22:00N 27°52' W 082°33'0 0.0
2018-Feb-14 21:30N 27°52' W 082°33'0 0.1
2018-Feb-14 21:00N 27°52' W 082°33'1 2.6
2018-Feb-14 20:26N 27°50' W 082°34'2 5.2
2018-Feb-14 20:00N 27°48' W 082°34'510.3
2018-Feb-14 19:30N 27°48' W 082°28'510.2
2018-Feb-14 19:00N 27°53' W 082°26'2 4.7
2018-Feb-14 18:30N 27°55' W 082°27'0 0.7
2018-Feb-14 18:00N 27°55' W 082°27'1 2.6
2018-Feb-14 17:30N 27°56' W 082°26'0 0.0
2018-Feb-14 17:00N 27°56' W 082°26'0 0.0
2018-Feb-14 16:30N 27°56' W 082°26'0 0.0
2018-Feb-14 15:59N 27°56' W 082°26'0 0.0
2018-Feb-14 15:30N 27°56' W 082°26'  
Track history (hours):
 
Tides and Currents Weather Stations Pressure Air Temp Water Temp Dewpoint Dewpoint Depression Visibility Wind Speed Wind Dir Waves Ship Positions

Liberty

Owner: Tampa Tugs Three, LLC, Tampa, FL. More information available from US FCC via Universal Licensing System and Coast Guard Vessel Documentation Center.

Last reported at 2018-Feb-24 15:30 UTC. Time now 2018-Feb-24 15:57 UTC.
Position N 27°52' W 082°33'.

Length 29 m.

Type: Tug. MMSI: 367174670.

Date/timePositionNaut miles runAvg speedWind from/ knotsBaromVisibWave heightAir tempDewpointWater temp
2018-Feb-24 15:30N 27°52' W 082°33'0 0.0
2018-Feb-24 15:00N 27°52' W 082°33'0 0.0
2018-Feb-24 14:30N 27°52' W 082°33'0 0.0
2018-Feb-24 14:00N 27°52' W 082°33'0 0.0
2018-Feb-24 13:30N 27°52' W 082°33'0 0.0
2018-Feb-24 13:00N 27°52' W 082°33'0 0.0
2018-Feb-24 12:27N 27°52' W 082°33'0 0.0
2018-Feb-24 12:00N 27°52' W 082°33'0 0.0
2018-Feb-24 11:30N 27°52' W 082°33'0 0.0
2018-Feb-24 11:00N 27°52' W 082°33'0 0.0
2018-Feb-24 10:29N 27°52' W 082°33'0 0.0
2018-Feb-24 10:00N 27°52' W 082°33'0 0.0
2018-Feb-24 09:30N 27°52' W 082°33'0 0.0
2018-Feb-24 09:00N 27°52' W 082°33'0 0.0
2018-Feb-24 08:30N 27°52' W 082°33'0 0.0
2018-Feb-24 07:59N 27°52' W 082°33'0 0.0
2018-Feb-24 07:29N 27°52' W 082°33'0 0.0
2018-Feb-24 06:58N 27°52' W 082°33'0 0.0
2018-Feb-24 06:30N 27°52' W 082°33'0 0.0
2018-Feb-24 06:00N 27°52' W 082°33'0 0.0
2018-Feb-24 05:30N 27°52' W 082°33'0 0.0
2018-Feb-24 05:00N 27°52' W 082°33'0 0.0
2018-Feb-24 04:30N 27°52' W 082°33'0 0.0
2018-Feb-24 04:00N 27°52' W 082°33'0 0.0
2018-Feb-24 03:30N 27°52' W 082°33'0 0.0
2018-Feb-24 03:00N 27°52' W 082°33'0 0.0
2018-Feb-24 02:30N 27°52' W 082°33'0 0.0
2018-Feb-24 02:00N 27°52' W 082°33'0 0.1
2018-Feb-24 01:30N 27°52' W 082°33'0 0.3
2018-Feb-24 01:00N 27°52' W 082°33'0 0.4
2018-Feb-24 00:30N 27°52' W 082°33'0 0.4
2018-Feb-23 23:50N 27°52' W 082°33'1 4.6
2018-Feb-23 23:30N 27°50' W 082°34'4 7.9
2018-Feb-23 23:00N 27°47' W 082°31'510.0
2018-Feb-23 22:30N 27°50' W 082°27'510.2
2018-Feb-23 22:00N 27°55' W 082°26'1 2.0
2018-Feb-23 21:30N 27°56' W 082°26'0 0.0
2018-Feb-23 21:00N 27°56' W 082°26'0 0.0
2018-Feb-23 20:30N 27°56' W 082°26'0 0.0
2018-Feb-23 20:00N 27°56' W 082°26'0 0.0
2018-Feb-23 19:30N 27°56' W 082°26'0 0.0
2018-Feb-23 19:00N 27°56' W 082°26'0 0.0
2018-Feb-23 18:30N 27°56' W 082°26'0 0.0
2018-Feb-23 18:00N 27°56' W 082°26'0 0.0
2018-Feb-23 17:30N 27°56' W 082°26'0 0.0
2018-Feb-23 17:00N 27°56' W 082°26'0 0.0
2018-Feb-23 16:30N 27°56' W 082°26'0 0.0
2018-Feb-23 16:00N 27°56' W 082°26'2 3.6
2018-Feb-23 15:30N 27°54' W 082°26'1 1.3
2018-Feb-23 14:59N 27°54' W 082°25'0 0.0
2018-Feb-23 14:30N 27°54' W 082°25'2 4.0
2018-Feb-23 14:00N 27°56' W 082°26'0 0.0
2018-Feb-23 13:30N 27°56' W 082°26'0 0.0
2018-Feb-23 12:59N 27°56' W 082°26'0 0.0
2018-Feb-23 12:30N 27°56' W 082°26'0 0.0
2018-Feb-23 12:00N 27°56' W 082°26'0 0.0
2018-Feb-23 11:30N 27°56' W 082°26'0 0.8
2018-Feb-23 11:00N 27°56' W 082°26'1 1.8
2018-Feb-23 10:31N 27°55' W 082°27'0 0.1
2018-Feb-23 10:00N 27°55' W 082°27'0 0.0
2018-Feb-23 09:30N 27°55' W 082°27'0 0.1
2018-Feb-23 09:00N 27°55' W 082°27'0 0.7
2018-Feb-23 08:30N 27°55' W 082°27'0 0.9
2018-Feb-23 08:00N 27°56' W 082°27'1 1.1
2018-Feb-23 07:30N 27°55' W 082°27'2 3.0
2018-Feb-23 07:00N 27°54' W 082°26'2 3.9
2018-Feb-23 06:30N 27°56' W 082°26'0 1.0
2018-Feb-23 06:00N 27°56' W 082°26'0 0.0
2018-Feb-23 05:30N 27°56' W 082°26'0 0.0
2018-Feb-23 05:00N 27°56' W 082°26'0 0.0
2018-Feb-23 04:30N 27°56' W 082°26'0 0.0
2018-Feb-23 04:00N 27°56' W 082°26'0 0.0
2018-Feb-23 03:30N 27°56' W 082°26'0 0.0
2018-Feb-23 02:59N 27°56' W 082°26'0 0.0
2018-Feb-23 02:30N 27°56' W 082°26'0 0.0
2018-Feb-23 02:00N 27°56' W 082°26'0 0.0
2018-Feb-23 01:30N 27°56' W 082°26'0 0.0
2018-Feb-23 01:00N 27°56' W 082°26'0 0.0
2018-Feb-23 00:30N 27°56' W 082°26'0 0.0
2018-Feb-23 00:00N 27°56' W 082°26'0 0.0
2018-Feb-22 23:30N 27°56' W 082°26'0 0.0
2018-Feb-22 23:00N 27°56' W 082°26'0 0.0
2018-Feb-22 22:30N 27°56' W 082°26'0 0.0
2018-Feb-22 22:00N 27°56' W 082°26'0 0.0
2018-Feb-22 21:30N 27°56' W 082°26'0 0.0
2018-Feb-22 21:00N 27°56' W 082°26'0 0.0
2018-Feb-22 20:30N 27°56' W 082°26'0 0.0
2018-Feb-22 20:00N 27°56' W 082°26'0 0.0
2018-Feb-22 19:30N 27°56' W 082°26'0 0.0
2018-Feb-22 19:00N 27°56' W 082°26'0 0.0
2018-Feb-22 18:30N 27°56' W 082°26'0 0.0
2018-Feb-22 18:00N 27°56' W 082°26'0 0.0
2018-Feb-22 17:29N 27°56' W 082°26'0 0.0
2018-Feb-22 17:00N 27°56' W 082°26'0 0.0
2018-Feb-22 16:30N 27°56' W 082°26'0 0.0
2018-Feb-22 16:00N 27°56' W 082°26'0 0.0
2018-Feb-22 15:30N 27°56' W 082°26'0 0.0
2018-Feb-22 15:00N 27°56' W 082°26'0 0.0
2018-Feb-22 14:30N 27°56' W 082°26'0 0.0
2018-Feb-22 13:59N 27°56' W 082°26'0 0.0
2018-Feb-22 13:30N 27°56' W 082°26'0 0.0
2018-Feb-22 13:00N 27°56' W 082°26'0 0.0
2018-Feb-22 12:30N 27°56' W 082°26'0 0.0
2018-Feb-22 11:59N 27°56' W 082°26'0 0.0
2018-Feb-22 11:30N 27°56' W 082°26'0 0.0
2018-Feb-22 11:00N 27°56' W 082°26'0 0.0
2018-Feb-22 10:30N 27°56' W 082°26'0 0.0
2018-Feb-22 10:00N 27°56' W 082°26'0 0.0
2018-Feb-22 09:30N 27°56' W 082°26'0 0.0
2018-Feb-22 09:00N 27°56' W 082°26'1 1.9
2018-Feb-22 08:30N 27°55' W 082°26'510.6
2018-Feb-22 08:00N 27°50' W 082°27'3 5.5
2018-Feb-22 07:30N 27°48' W 082°25'0 0.7
2018-Feb-22 06:57N 27°48' W 082°25'1 1.3
2018-Feb-22 06:29N 27°48' W 082°25'1 2.7
2018-Feb-22 06:00N 27°49' W 082°27'0 0.3
2018-Feb-22 05:30N 27°49' W 082°27'0 0.2
2018-Feb-22 05:00N 27°49' W 082°27'3 6.7
2018-Feb-22 04:30N 27°47' W 082°30'4 7.4
2018-Feb-22 04:00N 27°44' W 082°32'2 0.6
2018-Feb-22 01:04N 27°42' W 082°33'312.4
2018-Feb-22 00:50N 27°45' W 082°32'310.5
2018-Feb-22 00:30N 27°48' W 082°29'4 8.1
2018-Feb-21 23:58N 27°48' W 082°24'1 1.2
2018-Feb-21 23:30N 27°48' W 082°25'4 8.6
2018-Feb-21 23:00N 27°53' W 082°26'3 6.8
2018-Feb-21 22:30N 27°56' W 082°26'0 0.0
2018-Feb-21 22:00N 27°56' W 082°26'0 0.0
2018-Feb-21 21:30N 27°56' W 082°26'0 0.0
2018-Feb-21 21:00N 27°56' W 082°26'0 0.0
2018-Feb-21 20:30N 27°56' W 082°26'0 0.0
2018-Feb-21 20:00N 27°56' W 082°26'1 2.0
2018-Feb-21 19:30N 27°55' W 082°26'0 0.0
2018-Feb-21 19:00N 27°55' W 082°26'1 1.2
2018-Feb-21 18:27N 27°54' W 082°26'0 0.0
2018-Feb-21 18:00N 27°54' W 082°26'1 1.1
2018-Feb-21 17:30N 27°55' W 082°26'0 0.9
2018-Feb-21 17:00N 27°55' W 082°25'1 1.9
2018-Feb-21 16:30N 27°54' W 082°26'1 1.2
2018-Feb-21 16:00N 27°54' W 082°25'0 0.1
2018-Feb-21 15:30N 27°54' W 082°25'2 4.0
2018-Feb-21 15:00N 27°56' W 082°26'0 0.0
2018-Feb-21 14:30N 27°56' W 082°26'0 0.0
2018-Feb-21 14:00N 27°56' W 082°26'0 0.0
2018-Feb-21 13:30N 27°56' W 082°26'0 0.0
2018-Feb-21 13:00N 27°56' W 082°26'1 2.3
2018-Feb-21 12:30N 27°55' W 082°27'0 0.4
2018-Feb-21 12:00N 27°55' W 082°27'0 0.0
2018-Feb-21 11:30N 27°55' W 082°27'0 0.3
2018-Feb-21 11:00N 27°55' W 082°27'2 3.9
2018-Feb-21 10:30N 27°53' W 082°26'510.5
2018-Feb-21 10:00N 27°48' W 082°28'510.1
2018-Feb-21 09:29N 27°44' W 082°32'1 0.1
2018-Feb-20 19:18N 27°43' W 082°32'310.4
2018-Feb-20 18:58N 27°46' W 082°31'510.1
2018-Feb-20 18:30N 27°49' W 082°27'2 3.9
2018-Feb-20 18:00N 27°48' W 082°25'2 4.2
2018-Feb-20 17:30N 27°49' W 082°27'0 0.3
2018-Feb-20 17:00N 27°49' W 082°27'4 7.8
2018-Feb-20 16:30N 27°53' W 082°26'3 6.9
2018-Feb-20 16:00N 27°56' W 082°26'0 0.0
2018-Feb-20 15:30N 27°56' W 082°26'0 0.0
2018-Feb-20 15:00N 27°56' W 082°26'2 3.7
2018-Feb-20 14:30N 27°54' W 082°25'0 0.1
2018-Feb-20 14:00N 27°54' W 082°25'0 0.8
2018-Feb-20 13:30N 27°54' W 082°26'1 1.5
2018-Feb-20 13:00N 27°55' W 082°25'1 1.5
2018-Feb-20 12:30N 27°56' W 082°26'0 0.7
2018-Feb-20 12:00N 27°56' W 082°26'0 0.0
2018-Feb-20 11:30N 27°56' W 082°26'0 0.0
2018-Feb-20 11:00N 27°56' W 082°26'0 0.0
2018-Feb-20 10:30N 27°56' W 082°26'0 0.0
2018-Feb-20 10:00N 27°56' W 082°26'0 0.0
2018-Feb-20 09:30N 27°56' W 082°26'2 3.6
2018-Feb-20 09:00N 27°54' W 082°25'1 1.3
2018-Feb-20 08:30N 27°54' W 082°25'0 0.0
2018-Feb-20 08:00N 27°54' W 082°25'1 2.5
2018-Feb-20 07:30N 27°54' W 082°26'0 0.3
2018-Feb-20 07:00N 27°54' W 082°26'2 3.9
2018-Feb-20 06:30N 27°56' W 082°26'0 0.0
2018-Feb-20 06:00N 27°56' W 082°26'0 0.0
2018-Feb-20 05:30N 27°56' W 082°26'0 0.0
2018-Feb-20 05:00N 27°56' W 082°26'0 0.0
2018-Feb-20 04:30N 27°56' W 082°26'0 0.0
2018-Feb-20 04:00N 27°56' W 082°26'0 0.0
2018-Feb-20 03:30N 27°56' W 082°26'0 0.0
2018-Feb-20 03:00N 27°56' W 082°26'0 0.0
2018-Feb-20 02:30N 27°56' W 082°26'0 0.0
2018-Feb-20 02:00N 27°56' W 082°26'0 0.0
2018-Feb-20 01:30N 27°56' W 082°26'0 0.0
2018-Feb-20 01:00N 27°56' W 082°26'0 0.0
2018-Feb-20 00:30N 27°56' W 082°26'0 0.0
2018-Feb-20 00:00N 27°56' W 082°26'0 0.0
2018-Feb-19 23:30N 27°56' W 082°26'0 0.0
2018-Feb-19 23:00N 27°56' W 082°26'0 0.0
2018-Feb-19 22:30N 27°56' W 082°26'0 0.0
2018-Feb-19 22:00N 27°56' W 082°26'0 0.0
2018-Feb-19 21:30N 27°56' W 082°26'0 0.0
2018-Feb-19 21:00N 27°56' W 082°26'0 0.0
2018-Feb-19 20:30N 27°56' W 082°26'0 0.0
2018-Feb-19 20:00N 27°56' W 082°26'0 0.0
2018-Feb-19 19:30N 27°56' W 082°26'1 2.2
2018-Feb-19 19:00N 27°55' W 082°26'0 0.5
2018-Feb-19 18:30N 27°55' W 082°26'2 3.9
2018-Feb-19 18:00N 27°53' W 082°27'0 0.0
2018-Feb-19 17:31N 27°53' W 082°27'3 6.2
2018-Feb-19 17:00N 27°56' W 082°26'0 0.0
2018-Feb-19 16:30N 27°56' W 082°26'0 0.0
2018-Feb-19 16:00N 27°56' W 082°26'0 0.0
2018-Feb-19 15:30N 27°56' W 082°26'0 0.0
2018-Feb-19 15:00N 27°56' W 082°26'0 0.0
2018-Feb-19 14:30N 27°56' W 082°26'0 0.0
2018-Feb-19 14:00N 27°56' W 082°26'0 0.0
2018-Feb-19 13:30N 27°56' W 082°26'1 2.3
2018-Feb-19 13:00N 27°55' W 082°25'0 0.1
2018-Feb-19 12:30N 27°55' W 082°25'2 3.0
2018-Feb-19 12:00N 27°54' W 082°26'1 1.8
2018-Feb-19 11:30N 27°53' W 082°27'2 4.9
2018-Feb-19 11:00N 27°55' W 082°26'1 1.6
2018-Feb-19 10:30N 27°56' W 082°26'0 0.0
2018-Feb-19 10:00N 27°56' W 082°26'0 0.0
2018-Feb-19 09:30N 27°56' W 082°26'0 0.0
2018-Feb-19 09:00N 27°56' W 082°26'0 0.0
2018-Feb-19 08:30N 27°56' W 082°26'0 0.0
2018-Feb-19 08:00N 27°56' W 082°26'0 0.0
2018-Feb-19 07:30N 27°56' W 082°26'0 0.0
2018-Feb-19 07:00N 27°56' W 082°26'0 0.0
2018-Feb-19 06:30N 27°56' W 082°26'0 0.7
2018-Feb-19 06:00N 27°56' W 082°26'1 2.3
2018-Feb-19 05:30N 27°55' W 082°26'0 0.3
2018-Feb-19 05:00N 27°55' W 082°26'0 0.0
2018-Feb-19 04:30N 27°55' W 082°26'2 3.9
2018-Feb-19 04:00N 27°57' W 082°27'1 1.2
2018-Feb-19 03:30N 27°57' W 082°27'1 1.4
2018-Feb-19 03:00N 27°56' W 082°27'2 4.4
2018-Feb-19 02:30N 27°54' W 082°26'1 1.3
2018-Feb-19 02:00N 27°54' W 082°26'1 2.1
2018-Feb-19 01:30N 27°54' W 082°26'0 0.0
2018-Feb-19 01:00N 27°54' W 082°26'0 0.0
2018-Feb-19 00:31N 27°54' W 082°26'1 2.2
2018-Feb-19 00:00N 27°55' W 082°27'0 0.3
2018-Feb-18 23:30N 27°55' W 082°27'2 3.8
2018-Feb-18 23:00N 27°53' W 082°26'0 0.4
2018-Feb-18 22:30N 27°53' W 082°27'3 5.1
2018-Feb-18 22:00N 27°55' W 082°26'1 1.6
2018-Feb-18 21:30N 27°56' W 082°26'0 0.0
2018-Feb-18 21:00N 27°56' W 082°26'0 0.0
2018-Feb-18 20:30N 27°56' W 082°26'0 0.0
2018-Feb-18 20:00N 27°56' W 082°26'0 0.0
2018-Feb-18 19:30N 27°56' W 082°26'0 0.0
2018-Feb-18 19:00N 27°56' W 082°26'0 0.0
2018-Feb-18 18:30N 27°56' W 082°26'0 0.0
2018-Feb-18 18:00N 27°56' W 082°26'0 0.0
2018-Feb-18 17:30N 27°56' W 082°26'0 0.0
2018-Feb-18 17:00N 27°56' W 082°26'0 0.0
2018-Feb-18 16:30N 27°56' W 082°26'1 1.5
2018-Feb-18 16:00N 27°56' W 082°27'1 2.5
2018-Feb-18 15:30N 27°57' W 082°27'1 1.0
2018-Feb-18 15:00N 27°57' W 082°27'2 4.4
2018-Feb-18 14:31N 27°54' W 082°26'0 0.7
2018-Feb-18 14:00N 27°54' W 082°26'0 0.3
2018-Feb-18 13:31N 27°54' W 082°26'2 3.3
2018-Feb-18 13:00N 27°56' W 082°27'0 0.8
2018-Feb-18 12:30N 27°56' W 082°27'1 1.0
2018-Feb-18 12:00N 27°56' W 082°27'2 4.8
2018-Feb-18 11:30N 27°53' W 082°26'2 3.3
2018-Feb-18 11:00N 27°55' W 082°26'1 2.5
2018-Feb-18 10:30N 27°56' W 082°26'0 0.0
2018-Feb-18 10:00N 27°56' W 082°26'0 0.0
2018-Feb-18 09:30N 27°56' W 082°26'0 0.0
2018-Feb-18 09:00N 27°56' W 082°26'0 0.0
2018-Feb-18 08:30N 27°56' W 082°26'0 0.0
2018-Feb-18 08:00N 27°56' W 082°26'0 0.0
2018-Feb-18 07:30N 27°56' W 082°26'0 0.0
2018-Feb-18 07:00N 27°56' W 082°26'0 0.0
2018-Feb-18 06:30N 27°56' W 082°26'0 0.0
2018-Feb-18 06:00N 27°56' W 082°26'0 0.0
2018-Feb-18 05:30N 27°56' W 082°26'0 0.0
2018-Feb-18 05:00N 27°56' W 082°26'0 0.0
2018-Feb-18 04:30N 27°56' W 082°26'0 0.0
2018-Feb-18 04:00N 27°56' W 082°26'0 0.0
2018-Feb-18 03:30N 27°56' W 082°26'0 0.0
2018-Feb-18 03:00N 27°56' W 082°26'0 0.0
2018-Feb-18 02:30N 27°56' W 082°26'0 0.0
2018-Feb-18 02:00N 27°56' W 082°26'0 0.0
2018-Feb-18 01:30N 27°56' W 082°26'0 0.0
2018-Feb-18 01:00N 27°56' W 082°26'0 0.0
2018-Feb-18 00:30N 27°56' W 082°26'0 0.0
2018-Feb-18 00:00N 27°56' W 082°26'0 0.0
2018-Feb-17 23:30N 27°56' W 082°26'3 5.4
2018-Feb-17 23:00N 27°53' W 082°26'5 9.2
2018-Feb-17 22:30N 27°49' W 082°27'3 5.8
2018-Feb-17 22:00N 27°48' W 082°30'510.5
2018-Feb-17 21:29N 27°43' W 082°33'5 8.1
2018-Feb-17 20:54N 27°38' W 082°34'0 1.0
2018-Feb-17 20:30N 27°38' W 082°34'0 0.0
2018-Feb-17 20:00N 27°38' W 082°34'0 0.0
2018-Feb-17 18:38N 27°38' W 082°34'0 0.0
2018-Feb-17 18:13N 27°38' W 082°34'0 0.0
2018-Feb-17 17:44N 27°38' W 082°34'4 0.9
2018-Feb-17 13:08N 27°42' W 082°33'212.8
2018-Feb-17 13:00N 27°44' W 082°32'510.8
2018-Feb-17 12:30N 27°48' W 082°29'510.9
2018-Feb-17 12:00N 27°53' W 082°26'3 5.8
2018-Feb-17 11:29N 27°56' W 082°26'0 0.0
2018-Feb-17 11:00N 27°56' W 082°26'0 0.0
2018-Feb-17 10:30N 27°56' W 082°26'0 0.0
2018-Feb-17 10:00N 27°56' W 082°26'0 0.0
2018-Feb-17 09:30N 27°56' W 082°26'0 0.0
2018-Feb-17 09:00N 27°56' W 082°26'0 0.0
2018-Feb-17 08:30N 27°56' W 082°26'0 0.0
2018-Feb-17 08:00N 27°56' W 082°26'0 0.0
2018-Feb-17 07:30N 27°56' W 082°26'0 0.0
2018-Feb-17 06:59N 27°56' W 082°26'0 0.0
2018-Feb-17 06:30N 27°56' W 082°26'0 0.0
2018-Feb-17 06:00N 27°56' W 082°26'0 0.0
2018-Feb-17 05:30N 27°56' W 082°26'0 0.0
2018-Feb-17 05:00N 27°56' W 082°26'0 0.0
2018-Feb-17 04:30N 27°56' W 082°26'0 0.0
2018-Feb-17 04:00N 27°56' W 082°26'0 0.0
2018-Feb-17 03:26N 27°56' W 082°26'0 0.0
2018-Feb-17 03:00N 27°56' W 082°26'0 0.0
2018-Feb-17 02:30N 27°56' W 082°26'0 0.0
2018-Feb-17 02:00N 27°56' W 082°26'0 0.0
2018-Feb-17 01:30N 27°56' W 082°26'0 0.0
2018-Feb-17 01:00N 27°56' W 082°26'0 0.0
2018-Feb-17 00:30N 27°56' W 082°26'0 0.0
2018-Feb-17 00:00N 27°56' W 082°26'0 0.0
2018-Feb-16 23:30N 27°56' W 082°26'0 0.0
2018-Feb-16 23:00N 27°56' W 082°26'0 0.0
2018-Feb-16 22:30N 27°56' W 082°26'0 0.0
2018-Feb-16 22:00N 27°56' W 082°26'0 0.0
2018-Feb-16 21:30N 27°56' W 082°26'0 0.0
2018-Feb-16 21:00N 27°56' W 082°26'0 0.0
2018-Feb-16 20:30N 27°56' W 082°26'0 0.0
2018-Feb-16 20:00N 27°56' W 082°26'0 0.0
2018-Feb-16 19:30N 27°56' W 082°26'0 0.0
2018-Feb-16 19:00N 27°56' W 082°26'0 0.0
2018-Feb-16 18:30N 27°56' W 082°26'0 0.0
2018-Feb-16 18:00N 27°56' W 082°26'0 0.0
2018-Feb-16 17:30N 27°56' W 082°26'2 3.3
2018-Feb-16 17:00N 27°54' W 082°26'510.9
2018-Feb-16 16:31N 27°49' W 082°27'510.6
2018-Feb-16 16:00N 27°47' W 082°33'4 8.3
2018-Feb-16 15:30N 27°51' W 082°33'1 1.1
2018-Feb-16 14:58N 27°52' W 082°33'2 3.5
2018-Feb-16 14:30N 27°50' W 082°34'3 6.7
2018-Feb-16 14:00N 27°47' W 082°32'5 9.5
2018-Feb-16 13:30N 27°48' W 082°27'5 9.6
2018-Feb-16 13:00N 27°53' W 082°26'3 5.4
2018-Feb-16 12:30N 27°56' W 082°26'2 3.2
2018-Feb-16 12:00N 27°54' W 082°26'0 0.4
2018-Feb-16 11:30N 27°54' W 082°26'1 2.8
2018-Feb-16 11:00N 27°53' W 082°27'1 2.6
2018-Feb-16 10:30N 27°54' W 082°26'1 1.5
2018-Feb-16 10:00N 27°55' W 082°26'0 0.0
2018-Feb-16 09:30N 27°55' W 082°26'0 0.0
2018-Feb-16 09:00N 27°55' W 082°26'0 0.0
2018-Feb-16 08:30N 27°55' W 082°26'0 0.0
2018-Feb-16 08:00N 27°55' W 082°26'0 0.0
2018-Feb-16 07:30N 27°55' W 082°26'0 0.0
2018-Feb-16 07:00N 27°55' W 082°26'0 0.0
2018-Feb-16 06:30N 27°55' W 082°26'0 0.9
2018-Feb-16 06:00N 27°54' W 082°26'1 1.4
2018-Feb-16 05:30N 27°54' W 082°25'1 1.7
2018-Feb-16 05:00N 27°55' W 082°26'1 2.5
2018-Feb-16 04:30N 27°56' W 082°26'0 0.0
2018-Feb-16 04:00N 27°56' W 082°26'0 0.0
2018-Feb-16 03:30N 27°56' W 082°26'0 0.0
2018-Feb-16 03:00N 27°56' W 082°26'0 0.0
2018-Feb-16 02:30N 27°56' W 082°26'0 0.0
2018-Feb-16 02:00N 27°56' W 082°26'0 0.0
2018-Feb-16 01:30N 27°56' W 082°26'0 0.0
2018-Feb-16 01:00N 27°56' W 082°26'0 0.0
2018-Feb-16 00:30N 27°56' W 082°26'0 0.0
2018-Feb-16 00:00N 27°56' W 082°26'0 0.0
2018-Feb-15 23:30N 27°56' W 082°26'0 0.0
2018-Feb-15 23:00N 27°56' W 082°26'0 0.0
2018-Feb-15 22:30N 27°56' W 082°26'0 0.0
2018-Feb-15 22:00N 27°56' W 082°26'0 0.0
2018-Feb-15 21:30N 27°56' W 082°26'0 0.0
2018-Feb-15 21:00N 27°56' W 082°26'0 0.0
2018-Feb-15 20:30N 27°56' W 082°26'0 0.0
2018-Feb-15 20:00N 27°56' W 082°26'0 0.0
2018-Feb-15 19:30N 27°56' W 082°26'0 0.0
2018-Feb-15 19:00N 27°56' W 082°26'0 0.0
2018-Feb-15 18:30N 27°56' W 082°26'0 0.0
2018-Feb-15 18:00N 27°56' W 082°26'0 0.0
2018-Feb-15 17:30N 27°56' W 082°26'0 0.0
2018-Feb-15 17:00N 27°56' W 082°26'1 2.3
2018-Feb-15 16:30N 27°55' W 082°25'0 0.1
2018-Feb-15 16:00N 27°55' W 082°25'1 1.6
2018-Feb-15 15:30N 27°54' W 082°26'1 2.2
2018-Feb-15 15:00N 27°53' W 082°26'5 9.5
2018-Feb-15 14:30N 27°49' W 082°26'1 1.8
2018-Feb-15 13:52N 27°48' W 082°25'0 0.7
2018-Feb-15 13:30N 27°48' W 082°24'0 0.0
2018-Feb-15 13:00N 27°48' W 082°24'0 0.3
2018-Feb-15 12:30N 27°48' W 082°25'0 0.0
2018-Feb-15 12:00N 27°48' W 082°25'0 0.0
2018-Feb-15 11:29N 27°48' W 082°25'0 0.0
2018-Feb-15 11:00N 27°48' W 082°25'0 0.0
2018-Feb-15 10:30N 27°48' W 082°25'0 0.0
2018-Feb-15 10:00N 27°48' W 082°25'0 0.0
2018-Feb-15 09:30N 27°48' W 082°25'0 0.0
2018-Feb-15 09:00N 27°48' W 082°25'0 0.0
2018-Feb-15 08:30N 27°48' W 082°25'0 0.0
2018-Feb-15 08:00N 27°48' W 082°25'0 0.0
2018-Feb-15 07:30N 27°48' W 082°25'0 0.0
2018-Feb-15 07:00N 27°48' W 082°25'0 0.0
2018-Feb-15 06:30N 27°48' W 082°25'0 0.0
2018-Feb-15 06:00N 27°48' W 082°25'1 1.0
2018-Feb-15 05:29N 27°48' W 082°25'510.5
2018-Feb-15 05:00N 27°47' W 082°31'6 2.1
2018-Feb-15 02:12N 27°42' W 082°33'311.0
2018-Feb-15 01:55N 27°45' W 082°32'4 9.8
2018-Feb-15 01:30N 27°48' W 082°29'5 9.8
2018-Feb-15 01:00N 27°52' W 082°27'2 4.5
2018-Feb-15 00:30N 27°54' W 082°25'0 0.0
2018-Feb-15 00:01N 27°54' W 082°25'5 8.8
2018-Feb-14 23:30N 27°50' W 082°27'510.2
2018-Feb-14 23:01N 27°47' W 082°31'4 7.4
2018-Feb-14 22:29N 27°50' W 082°34'2 3.5
2018-Feb-14 22:00N 27°52' W 082°33'0 0.0
2018-Feb-14 21:30N 27°52' W 082°33'0 0.1
2018-Feb-14 21:00N 27°52' W 082°33'1 2.6
2018-Feb-14 20:26N 27°50' W 082°34'2 5.2
2018-Feb-14 20:00N 27°48' W 082°34'510.3
2018-Feb-14 19:30N 27°48' W 082°28'510.2
2018-Feb-14 19:00N 27°53' W 082°26'2 4.7
2018-Feb-14 18:30N 27°55' W 082°27'0 0.7
2018-Feb-14 18:00N 27°55' W 082°27'1 2.6
2018-Feb-14 17:30N 27°56' W 082°26'0 0.0
2018-Feb-14 17:00N 27°56' W 082°26'0 0.0
2018-Feb-14 16:30N 27°56' W 082°26'0 0.0
2018-Feb-14 15:59N 27°56' W 082°26'0 0.0
2018-Feb-14 15:30N 27°56' W 082°26'  

Dump ship's entire track history